METAR Data
IDs: Format: Raw Decoded Include TAF

Data at: 2201 UTC 24 Mar 2019

KHDO 242151Z AUTO 16005KT 10SM SCT029 OVC036 27/18 A3001 RMK AO2 SLP148 T02670183
KHDO 242108Z AUTO VRB03KT 10SM SCT028 26/18 A3002 RMK AO2 T02560183
KHDO 242051Z AUTO VRB03KT 10SM BKN026 25/18 A3003 RMK AO2 SLP154 T02500183 56023
KHDO 241951Z AUTO 00000KT 10SM OVC021 24/18 A3004 RMK AO2 SLP160 T02440183
KHDO 241851Z AUTO 13007KT 10SM OVC015 23/18 A3008 RMK AO2 SLP172 T02280183
KHDO 241751Z AUTO 17005KT 10SM OVC015 22/18 A3010 RMK AO2 SLP179 T02220178 10222 20194 58002
KHDO 241651Z AUTO 17004KT 10SM OVC012 21/18 A3011 RMK AO2 SLP183 T02110183
KHDO 241551Z AUTO 15008KT 10SM OVC011 21/18 A3011 RMK AO2 SLP184 T02060178
KHDO 241502Z AUTO 15008KT 10SM SCT006 OVC011 21/18 A3010 RMK AO2 T02060183
KHDO 241451Z AUTO 15008KT 10SM BKN006 OVC013 20/18 A3010 RMK AO2 CIG 005V010 SLP181 T02000183 51014
KHDO 241428Z AUTO 14006KT 10SM SCT006 OVC011 20/18 A3010 RMK AO2 T02000183
KHDO 241402Z AUTO 14005KT 7SM BKN008 OVC012 19/19 A3009 RMK AO2 CIG 004V011 T01940189
KHDO 241351Z AUTO 14005KT 5SM BR OVC010 19/18 A3009 RMK AO2 CIG 005V013 SLP177 T01940183
KHDO 241309Z AUTO 14006KT 7SM OVC009 19/18 A3008 RMK AO2 CIG 006V011 T01940183
KHDO 241251Z AUTO 15006KT 10SM OVC010 19/18 A3007 RMK AO2 CIG 006V012 SLP172 T01940183
KHDO 241235Z AUTO 15005KT 10SM OVC009 19/18 A3007 RMK AO2 CIG 006V012 T01940183
KHDO 241228Z AUTO 15007KT 10SM OVC010 19/18 A3007 RMK AO2 CIG 006V013 T01940183
KHDO 241220Z AUTO 15008KT 9SM BKN006 OVC010 19/18 A3006 RMK AO2 CIG 006V010 T01940183
KHDO 241205Z AUTO 16008KT 9SM BKN008 OVC012 19/18 A3006 RMK AO2 CIG 006V010 T01940183
KHDO 241151Z AUTO 16007KT 10SM OVC010 19/18 A3006 RMK AO2 CIG 008V013 SLP166 T01940183 10200 20194 53006
KHDO 241128Z AUTO 14007KT 10SM OVC012 19/18 A3005 RMK AO2 T01940183
KHDO 241120Z AUTO 14007KT 10SM SCT009 OVC015 19/18 A3005 RMK AO2 T01940183
KHDO 241051Z AUTO 15008KT 10SM OVC008 19/18 A3005 RMK AO2 CIG 007V010 SLP163 T01940178
KHDO 241006Z AUTO 15006KT 10SM OVC009 19/18 A3005 RMK AO2 T01940178
KHDO 240951Z AUTO 16007KT 10SM OVC010 19/18 A3004 RMK AO2 SLP160 T01940178
KHDO 240851Z AUTO 15009KT 10SM OVC013 20/18 A3004 RMK AO2 SLP159 T02000178 57008
KHDO 240751Z AUTO 15007KT 10SM OVC013 20/18 A3005 RMK AO2 SLP163 T02000178
KHDO 240732Z AUTO 15008KT 10SM OVC014 20/18 A3005 RMK AO2 T02000178
KHDO 240651Z AUTO 15010KT 10SM OVC019 20/18 A3005 RMK AO2 SLP165 T02000178
KHDO 240551Z AUTO 15010KT 10SM OVC018 20/18 A3006 RMK AO2 SLP169 T02000178 10233 20194 402560167 50005
KHDO 240451Z AUTO 15010KT 10SM OVC019 20/18 A3007 RMK AO2 SLP170 T02000178
KHDO 240411Z AUTO 15012KT 10SM FEW017 BKN027 OVC036 20/18 A3007 RMK AO2 T02000178
KHDO 240351Z AUTO 15013KT 10SM FEW018 OVC035 20/18 A3007 RMK AO2 SLP172 T02000178
KHDO 240251Z AUTO 14011KT 10SM FEW020 21/18 A3005 RMK AO2 SLP165 T02060178 51015
KHDO 240151Z AUTO 13008KT 10SM SCT024 BKN047 OVC060 22/18 A3005 RMK AO2 SLP164 T02170178
KHDO 240051Z AUTO 13009KT 10SM FEW027 22/18 A3003 RMK AO2 SLP156 T02220178
KHDO 232351Z AUTO 13012KT 10SM FEW028 SCT037 OVC060 23/18 A3001 RMK AO2 SLP149 T02330178 10256 20217 55006
KHDO 232251Z AUTO 14011KT 10SM FEW025 FEW060 24/18 A3000 RMK AO2 SLP146 T02440178
KHDO 232229Z AUTO 14009KT 10SM SCT027 BKN037 24/18 A2999 RMK AO2 T02440178
KHDO 232215Z AUTO 14010KT 10SM BKN027 BKN039 24/17 A2999 RMK AO2 T02440172
KHDO 232151Z AUTO 16008KT 10SM FEW036 BKN049 BKN055 25/18 A3000 RMK AO2 SLP147 T02500178
KHDO 232107Z AUTO 15007KT 10SM SCT025 SCT039 BKN046 24/17 A3002 RMK AO2 T02440172
KHDO 232051Z AUTO 15008KT 10SM BKN025 BKN030 OVC040 23/18 A3002 RMK AO2 SLP155 T02330178 58019
KHDO 231958Z AUTO 19006KT 10SM BKN024 OVC032 23/17 A3004 RMK AO2 T02280172
KHDO 231951Z AUTO 22005KT 10SM SCT024 OVC032 23/17 A3005 RMK AO2 SLP163 T02280172
KHDO 231931Z AUTO 20006KT 10SM SCT024 OVC034 23/17 A3005 RMK AO2 T02280172
KHDO 231851Z AUTO 19008KT 10SM BKN019 BKN025 OVC033 22/18 A3007 RMK AO2 SLP169 T02220178
KHDO 231751Z AUTO 18009KT 10SM OVC015 22/17 A3008 RMK AO2 SLP174 T02170172 10217 20172 50001
KHDO 231651Z AUTO 17011KT 10SM OVC015 21/17 A3008 RMK AO2 SLP175 T02110172
KHDO 231636Z AUTO 17012KT 10SM OVC015 21/17 A3008 RMK AO2 T02060172
KHDO 231551Z AUTO 16010KT 10SM OVC013 19/17 A3008 RMK AO2 SLP175 T01940167
KHDO 231451Z AUTO 14008KT 10SM OVC013 18/16 A3008 RMK AO2 SLP173 T01830156 51010
KHDO 231351Z AUTO 11003KT 10SM OVC014 18/14 A3007 RMK AO2 SLP172 T01780144
KHDO 231251Z AUTO 10004KT 10SM BKN019 OVC031 17/14 A3006 RMK AO2 SLP166 T01720144
KHDO 231151Z AUTO 07003KT 10SM OVC016 18/14 A3005 RMK AO2 SLP163 T01780139 10200 20167 53017
KHDO 231051Z AUTO 11004KT 10SM BKN017 OVC023 18/14 A3002 RMK AO2 SLP154 T01780139
KHDO 231027Z AUTO 12005KT 10SM BKN017 OVC033 18/14 A3001 RMK AO2 T01780139